Endicott, Virginia
Current Conditions -  °F | °C
As of 8:35 PM on Tuesday 25 Nov 2014 (Local Time) from KMTV Reporting Station
Scattered Clouds Scattered Clouds  
Wind Chill: 45°   Ceiling: Unl
Heat Index: 45°   Visibility: 10mi
Dew Point: 38°   Wind: 0mph
Humidity: 77%   Direction: NA
Pressure: 30.1"   Gusts: NA
Location:  36.9002°N, 80.0779°W
Report Text: KMTV 260135Z AUTO 00000KT 10SM SCT120 07/03 A3010 RMK AO2 T00720034
Loading
Personal Weather Stations






























Interactive Weather Map New forecast layout! Learn more

10-Day Weather Forecast

Advertisements
Track Severe Weather on mobile